Time;durP1;ratioP1;P1;durP2;ratioP2;P2;SDS_P1;SDS_P2;PMS_P1;PMS_P2;Temp;Humidity;BMP_temperature;BMP_pressure;BME280_temperature;BME280_humidity;BME280_pressure;Samples;Min_cycle;Max_cycle;Signal;HPM_P1;HPM_P2
2022/12/15 00:39:30;;;;;;;4.05;0.60;;;;;;;;;;6238917;23;20134;-89
2022/12/15 00:41:56;;;;;;;4.88;0.65;;;;;;;;;;6240290;23;20012;-89
2022/12/15 00:44:22;;;;;;;3.28;0.50;;;;;;;;;;6237964;23;20003;-89
2022/12/15 00:46:56;;;;;;;2.38;0.47;;;;;;;;;;6238416;23;20007;-88
2022/12/15 01:22:31;;;;;;;6.18;1.00;;;;;;;;;;6242040;23;20046;-88
2022/12/15 01:24:56;;;;;;;7.15;1.08;;;;;;;;;;6220247;23;20016;-88
2022/12/15 01:27:22;;;;;;;7.53;1.13;;;;;;;;;;6253822;23;20000;-87
2022/12/15 01:29:47;;;;;;;4.78;0.93;;;;;;;;;;6248370;23;20000;-89
2022/12/15 01:32:12;;;;;;;8.02;1.38;;;;;;;;;;6220063;23;20015;-88
2022/12/15 01:34:38;;;;;;;7.00;1.00;;;;;;;;;;6229332;23;20007;-88
2022/12/15 01:37:03;;;;;;;5.03;0.93;;;;;;;;;;6254895;23;20012;-89
2022/12/15 01:40:43;;;;;;;4.38;0.90;;;;;;;;;;6254911;23;20000;-89
2022/12/15 01:42:14;;;;;;;5.55;0.73;;;;;;;;;;6240991;23;19996;-89
2022/12/15 01:44:48;;;;;;;7.75;1.35;;;;;;;;;;6212376;23;20077;-89
2022/12/15 01:47:14;;;;;;;7.20;1.00;;;;;;;;;;6212499;23;20015;-89
2022/12/15 01:49:46;;;;;;;5.95;0.93;;;;;;;;;;6211416;23;20007;-89
2022/12/15 01:52:12;;;;;;;3.92;0.90;;;;;;;;;;6237554;23;20008;-88
2022/12/15 01:54:52;;;;;;;4.18;0.75;;;;;;;;;;6240078;23;20019;-89
2022/12/15 01:57:24;;;;;;;6.65;0.82;;;;;;;;;;6244543;22;20497;-89
2022/12/15 01:59:52;;;;;;;3.72;0.80;;;;;;;;;;6236762;22;20012;-89
2022/12/15 02:02:20;;;;;;;6.20;0.80;;;;;;;;;;6236568;23;20012;-89
2022/12/15 02:04:46;;;;;;;4.85;0.60;;;;;;;;;;6261219;22;20594;-89
2022/12/15 02:07:21;;;;;;;4.75;1.00;;;;;;;;;;6268265;22;20003;-89
2022/12/15 02:09:47;;;;;;;4.63;0.75;;;;;;;;;;6269836;22;20008;-89
2022/12/15 02:12:31;;;;;;;4.47;0.60;;;;;;;;;;6243135;22;20007;-89
2022/12/15 02:14:59;;;;;;;5.28;0.77;;;;;;;;;;6244553;22;20038;-89
2022/12/15 02:17:46;;;;;;;5.45;0.90;;;;;;;;;;6271557;22;20024;-89
2022/12/15 02:20:33;;;;;;;3.03;0.77;;;;;;;;;;6244086;22;20008;-89
2022/12/15 02:23:17;;;;;;;4.40;0.90;;;;;;;;;;6243907;22;20058;-88
2022/12/15 02:25:58;;;;;;;3.45;0.63;;;;;;;;;;6243075;22;20011;-89
2022/12/15 02:28:42;;;;;;;3.20;0.52;;;;;;;;;;6242630;22;20004;-88
2022/12/15 02:34:04;;;;;;;5.47;0.80;;;;;;;;;;6273091;22;20038;-90
2022/12/15 02:36:36;;;;;;;3.88;0.70;;;;;;;;;;6270764;22;20007;-89
2022/12/15 02:39:03;;;;;;;4.43;0.80;;;;;;;;;;6270474;22;20712;-90
2022/12/15 02:41:37;;;;;;;7.45;0.73;;;;;;;;;;6237867;23;20011;-89
2022/12/15 02:44:15;;;;;;;4.15;0.65;;;;;;;;;;6268758;22;20070;-90
2022/12/15 02:46:49;;;;;;;6.20;0.60;;;;;;;;;;6274569;22;20011;-88
2022/12/15 02:49:36;;;;;;;2.88;0.60;;;;;;;;;;6271205;22;20623;-89
2022/12/15 02:52:11;;;;;;;2.55;0.50;;;;;;;;;;6272297;22;20103;-89
2022/12/15 02:54:57;;;;;;;1.98;0.40;;;;;;;;;;6239620;23;20004;-89
2022/12/15 02:57:45;;;;;;;4.78;0.75;;;;;;;;;;6241457;22;20061;-89
2022/12/15 03:03:08;;;;;;;4.00;0.50;;;;;;;;;;6267160;22;20101;-90
2022/12/15 03:05:33;;;;;;;5.18;0.60;;;;;;;;;;6241356;22;20008;-91
2022/12/15 03:08:00;;;;;;;1.38;0.30;;;;;;;;;;6267413;22;20404;-91
2022/12/15 03:10:25;;;;;;;4.45;0.68;;;;;;;;;;6272045;22;19996;-90
2022/12/15 03:12:51;;;;;;;0.93;0.20;;;;;;;;;;6273816;22;20018;-90
2022/12/15 03:15:16;;;;;;;3.65;0.40;;;;;;;;;;6245730;22;20027;-90
2022/12/15 03:17:42;;;;;;;1.52;0.40;;;;;;;;;;6246097;22;20039;-90
2022/12/15 03:20:07;;;;;;;2.17;0.40;;;;;;;;;;6246867;22;20050;-91
2022/12/15 03:22:33;;;;;;;4.22;0.60;;;;;;;;;;6274028;22;20016;-91
2022/12/15 03:24:59;;;;;;;2.90;0.70;;;;;;;;;;6276285;22;20400;-91
2022/12/15 03:27:24;;;;;;;3.67;0.35;;;;;;;;;;6251074;22;20054;-91
2022/12/15 03:29:49;;;;;;;2.92;0.55;;;;;;;;;;6251967;22;19995;-90
2022/12/15 03:32:15;;;;;;;2.45;0.35;;;;;;;;;;6256397;22;20003;-91
2022/12/15 03:34:40;;;;;;;2.00;0.40;;;;;;;;;;6256652;22;20003;-90
2022/12/15 03:37:06;;;;;;;4.38;0.60;;;;;;;;;;6283677;22;20031;-92
2022/12/15 03:39:31;;;;;;;2.95;0.55;;;;;;;;;;6286751;22;20095;-90
2022/12/15 03:41:56;;;;;;;2.63;0.60;;;;;;;;;;6253815;22;20328;-90
2022/12/15 03:44:21;;;;;;;2.58;0.35;;;;;;;;;;6249080;22;20004;-91
2022/12/15 03:46:47;;;;;;;4.72;0.68;;;;;;;;;;6273708;22;20006;-90
2022/12/15 03:49:12;;;;;;;3.03;0.60;;;;;;;;;;6274226;22;19995;-91
2022/12/15 03:51:37;;;;;;;4.13;0.43;;;;;;;;;;6245782;22;20820;-91
2022/12/15 03:54:02;;;;;;;5.93;0.70;;;;;;;;;;6245867;22;20851;-91
2022/12/15 03:56:28;;;;;;;4.97;0.70;;;;;;;;;;6245345;22;20011;-91
2022/12/15 03:58:56;;;;;;;6.18;0.80;;;;;;;;;;6244486;22;20075;-91
2022/12/15 04:01:32;;;;;;;7.90;0.70;;;;;;;;;;6243544;22;20019;-91
2022/12/15 04:03:58;;;;;;;3.97;0.63;;;;;;;;;;6270236;22;20016;-91
2022/12/15 04:06:23;;;;;;;2.80;0.60;;;;;;;;;;6243404;22;20011;-91
2022/12/15 04:08:49;;;;;;;5.90;0.73;;;;;;;;;;6243419;22;20018;-91
2022/12/15 04:11:15;;;;;;;3.05;0.52;;;;;;;;;;6245805;22;20074;-92
2022/12/15 04:13:40;;;;;;;4.63;0.70;;;;;;;;;;6248146;22;20424;-91
2022/12/15 04:16:05;;;;;;;4.38;0.60;;;;;;;;;;6262668;22;20000;-90
2022/12/15 04:18:31;;;;;;;5.82;1.50;;;;;;;;;;6270894;22;20038;-91
2022/12/15 04:20:56;;;;;;;6.47;0.60;;;;;;;;;;6281657;22;20428;-91
2022/12/15 04:23:29;;;;;;;3.42;0.73;;;;;;;;;;6251380;22;20322;-91
2022/12/15 05:31:47;;;;;;;3.60;0.55;;;;;;;;;;6330315;22;20040;-90
2022/12/15 05:34:13;;;;;;;3.58;0.57;;;;;;;;;;6303464;22;20018;-90
2022/12/15 05:36:38;;;;;;;4.45;0.60;;;;;;;;;;6331182;22;20003;-90
2022/12/15 05:39:03;;;;;;;4.20;0.57;;;;;;;;;;6330954;22;20002;-90
2022/12/15 05:41:31;;;;;;;3.60;0.40;;;;;;;;;;6303146;22;20006;-91
2022/12/15 05:43:56;;;;;;;3.53;0.57;;;;;;;;;;6303938;22;19995;-90
2022/12/15 05:46:22;;;;;;;3.55;0.60;;;;;;;;;;6330375;22;20001;-89
2022/12/15 05:48:47;;;;;;;3.17;0.50;;;;;;;;;;6331252;22;20467;-90
2022/12/15 05:51:13;;;;;;;2.70;0.70;;;;;;;;;;6305749;22;20101;-90
2022/12/15 05:53:39;;;;;;;1.85;0.43;;;;;;;;;;6305564;22;20458;-90
2022/12/15 05:56:06;;;;;;;2.30;0.43;;;;;;;;;;6304338;22;20079;-90
2022/12/15 05:58:31;;;;;;;2.50;0.60;;;;;;;;;;6332330;22;20002;-91
2022/12/15 06:01:07;;;;;;;5.65;0.60;;;;;;;;;;6304004;22;20372;-90
2022/12/15 06:03:33;;;;;;;2.28;0.40;;;;;;;;;;6303609;22;20031;-90
2022/12/15 06:05:59;;;;;;;3.72;0.52;;;;;;;;;;6331207;22;20099;-91
2022/12/15 06:08:25;;;;;;;5.15;0.73;;;;;;;;;;6304781;22;20402;-89
2022/12/15 06:10:56;;;;;;;3.60;0.60;;;;;;;;;;6304192;22;20620;-90
2022/12/15 06:13:22;;;;;;;3.33;0.55;;;;;;;;;;6332538;22;20007;-89
2022/12/15 06:15:57;;;;;;;5.45;0.60;;;;;;;;;;6303931;22;20057;-89
2022/12/15 06:18:22;;;;;;;1.80;0.35;;;;;;;;;;6302838;22;20010;-90
2022/12/15 06:20:48;;;;;;;4.85;0.75;;;;;;;;;;6303691;22;20002;-90
2022/12/15 06:23:13;;;;;;;2.85;0.60;;;;;;;;;;6304110;22;20006;-91
2022/12/15 06:25:38;;;;;;;5.78;1.20;;;;;;;;;;6305604;22;19999;-91
2022/12/15 06:28:03;;;;;;;6.80;0.80;;;;;;;;;;6337022;22;20003;-90
2022/12/15 06:30:29;;;;;;;3.90;0.60;;;;;;;;;;6320124;22;20062;-90
2022/12/15 06:32:54;;;;;;;6.18;1.02;;;;;;;;;;6359559;22;20068;-91
2022/12/15 06:35:20;;;;;;;2.20;0.50;;;;;;;;;;6321867;22;20459;-90
2022/12/15 06:37:46;;;;;;;4.32;0.88;;;;;;;;;;6340264;22;20002;-91
2022/12/15 06:40:11;;;;;;;4.28;0.50;;;;;;;;;;6310539;22;20021;-90
2022/12/15 06:42:36;;;;;;;3.65;0.82;;;;;;;;;;6344892;22;20020;-90
2022/12/15 06:45:02;;;;;;;4.25;0.50;;;;;;;;;;6328626;22;20048;-91
2022/12/15 06:47:29;;;;;;;3.50;0.73;;;;;;;;;;6344072;22;20007;-91
2022/12/15 06:49:54;;;;;;;2.22;0.70;;;;;;;;;;6305401;22;20032;-90
2022/12/15 06:52:20;;;;;;;1.27;0.43;;;;;;;;;;6331307;22;20017;-90
2022/12/15 06:54:45;;;;;;;2.55;0.57;;;;;;;;;;6305462;22;20013;-91
2022/12/15 06:57:10;;;;;;;2.65;0.55;;;;;;;;;;6302630;22;20083;-90
2022/12/15 06:59:36;;;;;;;2.38;0.60;;;;;;;;;;6305650;22;19991;-91
2022/12/15 07:02:01;;;;;;;3.65;0.40;;;;;;;;;;6333228;22;20018;-91
2022/12/15 07:04:26;;;;;;;3.10;0.60;;;;;;;;;;6304227;22;20046;-90
2022/12/15 07:06:52;;;;;;;1.80;0.47;;;;;;;;;;6332789;22;20080;-91
2022/12/15 07:09:17;;;;;;;4.25;0.60;;;;;;;;;;6305238;22;20037;-90
2022/12/15 07:11:43;;;;;;;3.60;0.52;;;;;;;;;;6333922;22;20005;-91
2022/12/15 07:14:09;;;;;;;2.78;0.60;;;;;;;;;;6333222;22;20010;-90
2022/12/15 07:16:34;;;;;;;2.58;0.50;;;;;;;;;;6305223;22;20071;-90
2022/12/15 07:18:59;;;;;;;6.43;0.60;;;;;;;;;;6332843;22;20006;-91
2022/12/15 07:21:25;;;;;;;4.97;0.90;;;;;;;;;;6332042;22;19999;-90
2022/12/15 07:23:50;;;;;;;3.75;0.93;;;;;;;;;;6305532;22;20014;-91
2022/12/15 07:26:15;;;;;;;3.17;0.63;;;;;;;;;;6331380;22;20007;-91
2022/12/15 07:28:40;;;;;;;3.88;0.60;;;;;;;;;;6305719;22;20014;-91
2022/12/15 07:31:07;;;;;;;5.05;0.93;;;;;;;;;;6333896;22;20085;-92
2022/12/15 07:33:33;;;;;;;2.83;0.45;;;;;;;;;;6333943;22;20014;-91
2022/12/15 07:35:59;;;;;;;4.38;0.55;;;;;;;;;;6335952;22;20294;-91
2022/12/15 07:38:25;;;;;;;2.55;0.73;;;;;;;;;;6308556;22;20014;-91
2022/12/15 07:40:50;;;;;;;3.13;0.77;;;;;;;;;;6306562;22;20060;-91
2022/12/15 07:43:16;;;;;;;3.72;0.70;;;;;;;;;;6304024;22;20013;-91
2022/12/15 07:45:42;;;;;;;5.25;0.65;;;;;;;;;;6306300;22;20051;-91
2022/12/15 07:48:08;;;;;;;2.83;0.45;;;;;;;;;;6305929;22;20064;-92
2022/12/15 07:50:35;;;;;;;4.25;0.50;;;;;;;;;;6305072;22;20041;-93
2022/12/15 07:53:00;;;;;;;8.07;0.60;;;;;;;;;;6303783;22;20652;-91
2022/12/15 07:55:25;;;;;;;3.35;0.60;;;;;;;;;;6332474;22;20102;-91
2022/12/15 10:50:20;;;;;;;7.68;0.80;;;;;;;;;;6302051;22;20045;-93
2022/12/15 10:52:47;;;;;;;5.75;0.60;;;;;;;;;;6331982;22;20114;-92
2022/12/15 10:55:31;;;;;;;5.47;0.70;;;;;;;;;;6306187;22;20046;-89
2022/12/15 10:57:58;;;;;;;6.25;0.70;;;;;;;;;;6331258;22;20026;-92
2022/12/15 11:00:27;;;;;;;5.13;0.60;;;;;;;;;;6322091;22;20045;-92
2022/12/15 11:02:54;;;;;;;3.50;0.45;;;;;;;;;;6304841;22;20014;-92
2022/12/15 11:05:20;;;;;;;7.05;0.90;;;;;;;;;;6336012;22;20029;-92
2022/12/15 11:08:12;;;;;;;6.72;0.82;;;;;;;;;;6321839;22;19995;-92
2022/12/15 11:13:34;;;;;;;3.65;0.68;;;;;;;;;;6334068;22;20017;-91
2022/12/15 11:16:09;;;;;;;5.35;0.80;;;;;;;;;;6301816;22;20076;-90
2022/12/15 11:18:59;;;;;;;4.72;0.73;;;;;;;;;;6301522;22;20122;-92
2022/12/15 11:21:44;;;;;;;5.10;0.65;;;;;;;;;;6174159;23;20001;-90
2022/12/15 11:24:28;;;;;;;3.92;0.68;;;;;;;;;;6173060;23;20024;-91
2022/12/15 11:26:57;;;;;;;5.95;0.90;;;;;;;;;;6147912;23;20017;-92
2022/12/15 11:29:22;;;;;;;1.83;0.60;;;;;;;;;;6146913;23;20016;-90
2022/12/15 11:31:49;;;;;;;4.53;0.70;;;;;;;;;;6150222;23;20013;-90
2022/12/15 11:34:16;;;;;;;5.32;0.77;;;;;;;;;;6146005;23;20585;-90
2022/12/15 11:37:06;;;;;;;3.85;0.80;;;;;;;;;;6148230;23;20005;-91
2022/12/15 11:39:40;;;;;;;6.55;0.82;;;;;;;;;;6147950;23;20123;-91
2022/12/15 11:42:11;;;;;;;3.28;0.80;;;;;;;;;;6146354;23;20880;-91
2022/12/15 11:44:52;;;;;;;8.23;1.10;;;;;;;;;;6146895;23;20100;-91
2022/12/15 11:47:17;;;;;;;6.07;1.00;;;;;;;;;;6172230;23;20005;-90
2022/12/15 11:49:52;;;;;;;5.70;0.95;;;;;;;;;;6147381;23;20016;-90
2022/12/15 11:52:32;;;;;;;4.95;0.85;;;;;;;;;;6142958;23;20127;-90
2022/12/15 11:55:16;;;;;;;4.47;0.65;;;;;;;;;;6149885;23;20318;-92
2022/12/15 11:57:51;;;;;;;2.97;0.73;;;;;;;;;;6177806;22;20019;-90
2022/12/15 12:00:18;;;;;;;5.47;0.70;;;;;;;;;;6304419;22;20014;-91
2022/12/15 12:02:49;;;;;;;6.05;1.00;;;;;;;;;;6301015;22;20548;-90
2022/12/15 12:05:21;;;;;;;5.93;0.82;;;;;;;;;;6301428;22;20128;-90
2022/12/15 12:07:49;;;;;;;6.00;0.70;;;;;;;;;;6328908;22;20094;-90
2022/12/15 12:10:17;;;;;;;3.33;0.75;;;;;;;;;;6301080;22;20003;-90
2022/12/15 12:12:48;;;;;;;4.60;0.88;;;;;;;;;;6299488;22;20003;-90
2022/12/15 12:15:32;;;;;;;8.25;1.10;;;;;;;;;;6301790;22;20014;-91
2022/12/15 12:18:03;;;;;;;6.78;0.90;;;;;;;;;;6302558;22;20026;-90
2022/12/15 12:20:41;;;;;;;6.93;1.08;;;;;;;;;;6301480;22;20077;-90
2022/12/15 12:23:21;;;;;;;5.32;1.00;;;;;;;;;;6304552;22;20010;-90
2022/12/15 12:26:02;;;;;;;5.88;0.90;;;;;;;;;;6304994;22;20030;-90
2022/12/15 12:28:32;;;;;;;5.75;1.00;;;;;;;;;;6305431;22;20010;-90
2022/12/15 12:30:59;;;;;;;7.30;0.90;;;;;;;;;;6331888;22;20015;-91
2022/12/15 12:33:31;;;;;;;3.45;0.80;;;;;;;;;;6302130;22;20064;-90
2022/12/15 12:35:59;;;;;;;4.57;0.80;;;;;;;;;;6333235;22;20026;-91
2022/12/15 12:38:45;;;;;;;9.35;1.00;;;;;;;;;;6305800;22;20297;-91
2022/12/15 12:41:11;;;;;;;8.20;0.90;;;;;;;;;;6303000;22;20063;-91
2022/12/15 12:44:05;;;;;;;4.95;0.90;;;;;;;;;;6302754;22;19991;-91
2022/12/15 12:46:51;;;;;;;4.75;1.00;;;;;;;;;;6292902;22;20010;-91
2022/12/15 12:49:36;;;;;;;7.35;0.90;;;;;;;;;;6327642;22;20003;-89
2022/12/15 12:52:03;;;;;;;6.93;1.23;;;;;;;;;;6331503;22;20033;-90
2022/12/15 12:54:28;;;;;;;6.70;0.90;;;;;;;;;;6330923;22;20089;-89
2022/12/15 12:56:53;;;;;;;7.10;1.00;;;;;;;;;;6302123;22;20045;-90
2022/12/15 12:59:28;;;;;;;5.32;0.90;;;;;;;;;;6303102;22;20252;-89
2022/12/15 13:01:54;;;;;;;5.35;1.10;;;;;;;;;;6303458;22;20011;-90
2022/12/15 13:04:29;;;;;;;9.75;1.30;;;;;;;;;;6331409;22;19999;-89
2022/12/15 13:06:56;;;;;;;4.97;1.05;;;;;;;;;;6305367;22;20067;-91
2022/12/15 13:09:22;;;;;;;8.75;1.17;;;;;;;;;;6304705;22;20002;-91
2022/12/15 13:11:47;;;;;;;5.95;1.10;;;;;;;;;;6305475;22;20072;-90
2022/12/15 13:14:14;;;;;;;5.95;0.95;;;;;;;;;;6328551;22;20006;-90
2022/12/15 13:16:41;;;;;;;7.43;1.17;;;;;;;;;;6327050;22;20014;-90
2022/12/15 13:19:07;;;;;;;5.10;1.00;;;;;;;;;;6308089;22;19999;-89
2022/12/15 13:21:44;;;;;;;7.15;0.90;;;;;;;;;;6305646;22;20045;-89
2022/12/15 13:24:28;;;;;;;7.63;0.95;;;;;;;;;;6316498;22;20005;-90
2022/12/15 13:27:04;;;;;;;5.07;1.10;;;;;;;;;;6356985;22;19979;-89
2022/12/15 13:29:30;;;;;;;6.60;1.05;;;;;;;;;;6336046;22;20003;-89
2022/12/15 13:31:56;;;;;;;5.63;1.10;;;;;;;;;;6331808;22;20015;-89
2022/12/15 13:34:23;;;;;;;5.60;1.10;;;;;;;;;;6302360;22;20309;-89
2022/12/15 13:36:50;;;;;;;7.70;1.17;;;;;;;;;;6331538;22;20018;-89
2022/12/15 13:39:15;;;;;;;3.15;0.88;;;;;;;;;;6330222;22;19995;-90
2022/12/15 13:41:40;;;;;;;8.88;1.27;;;;;;;;;;6302360;22;20361;-91
2022/12/15 13:44:24;;;;;;;6.95;1.13;;;;;;;;;;6303663;22;20013;-90
2022/12/15 13:46:49;;;;;;;;;;;;;;;;;;6303922;22;20014;-91
2022/12/15 13:49:21;;;;;;;8.18;1.20;;;;;;;;;;6300637;22;19903;-90
2022/12/15 13:51:47;;;;;;;7.50;1.40;;;;;;;;;;6304017;22;20081;-90
2022/12/15 13:54:14;;;;;;;8.35;1.48;;;;;;;;;;6331303;22;20010;-91
2022/12/15 13:56:48;;;;;;;7.78;1.55;;;;;;;;;;6330948;22;19995;-91
2022/12/15 13:59:21;;;;;;;5.78;1.30;;;;;;;;;;6330766;22;20534;-90
2022/12/15 14:01:47;;;;;;;7.80;1.50;;;;;;;;;;6301878;22;20018;-89
2022/12/15 14:04:15;;;;;;;6.80;1.00;;;;;;;;;;6303474;22;20496;-90
2022/12/15 14:06:47;;;;;;;8.40;1.50;;;;;;;;;;6306596;22;20014;-90
2022/12/15 14:09:14;;;;;;;6.13;1.27;;;;;;;;;;6331687;22;20744;-91
2022/12/15 14:11:41;;;;;;;8.63;1.58;;;;;;;;;;6300610;22;20007;-91
2022/12/15 14:14:14;;;;;;;6.05;1.25;;;;;;;;;;6302231;22;20461;-91
2022/12/15 14:16:40;;;;;;;7.28;1.90;;;;;;;;;;6303235;22;20007;-91
2022/12/15 14:19:15;;;;;;;5.85;1.50;;;;;;;;;;6331339;22;20022;-90
2022/12/15 14:21:51;;;;;;;7.28;1.30;;;;;;;;;;6331905;22;20382;-90
2022/12/15 14:24:24;;;;;;;7.05;1.50;;;;;;;;;;6304017;22;20007;-91
2022/12/15 14:26:49;;;;;;;6.70;1.38;;;;;;;;;;6304677;22;20009;-90
2022/12/15 14:29:16;;;;;;;7.13;1.25;;;;;;;;;;6332245;22;20411;-90
2022/12/15 14:31:43;;;;;;;6.90;1.50;;;;;;;;;;6304846;22;20083;-89
2022/12/15 14:34:20;;;;;;;11.45;1.92;;;;;;;;;;6328155;22;20347;-89
2022/12/15 14:36:49;;;;;;;7.53;1.50;;;;;;;;;;6329411;22;19998;-90
2022/12/15 14:39:20;;;;;;;6.55;1.70;;;;;;;;;;6332260;22;20088;-91
2022/12/15 14:41:47;;;;;;;7.40;1.42;;;;;;;;;;6331944;22;19998;-91
2022/12/15 14:44:30;;;;;;;9.68;1.63;;;;;;;;;;6305038;22;20018;-92
2022/12/15 14:46:56;;;;;;;6.65;1.70;;;;;;;;;;6305222;22;20013;-89
2022/12/15 14:49:24;;;;;;;7.80;1.35;;;;;;;;;;6331989;22;20096;-89
2022/12/15 14:51:51;;;;;;;10.23;2.00;;;;;;;;;;6304037;22;20026;-90
2022/12/15 14:54:31;;;;;;;7.28;1.55;;;;;;;;;;6304802;22;20067;-90
2022/12/15 14:57:13;;;;;;;7.53;1.50;;;;;;;;;;6304346;22;20293;-90
2022/12/15 14:59:40;;;;;;;8.07;1.33;;;;;;;;;;6331888;22;20014;-89
2022/12/15 15:02:06;;;;;;;8.32;1.50;;;;;;;;;;6330921;22;20514;-90
2022/12/15 15:04:32;;;;;;;11.32;1.98;;;;;;;;;;6303126;22;20006;-90
2022/12/15 15:07:01;;;;;;;8.27;1.55;;;;;;;;;;6331661;22;20420;-91
2022/12/15 15:09:26;;;;;;;9.07;1.50;;;;;;;;;;6332284;22;20063;-90
2022/12/15 15:11:58;;;;;;;8.15;1.55;;;;;;;;;;6305462;22;20402;-91
2022/12/15 15:14:43;;;;;;;8.02;1.70;;;;;;;;;;6304419;22;20423;-90
2022/12/15 15:17:12;;;;;;;10.57;1.80;;;;;;;;;;6328687;22;20014;-90
2022/12/15 15:19:45;;;;;;;7.55;1.73;;;;;;;;;;6331921;22;20021;-91
2022/12/15 15:22:10;;;;;;;;;;;;;;;;;;6306398;22;20003;-91
2022/12/15 15:24:36;;;;;;;8.50;1.73;;;;;;;;;;6334090;22;19942;-90
2022/12/15 15:27:37;;;;;;;8.65;1.88;;;;;;;;;;6334873;22;20007;-90
2022/12/15 15:30:12;;;;;;;9.20;1.90;;;;;;;;;;6203356;23;19993;-91
2022/12/15 15:32:48;;;;;;;8.15;2.05;;;;;;;;;;6191854;23;20009;-90
2022/12/15 15:35:13;;;;;;;7.40;1.90;;;;;;;;;;6180709;23;20032;-90
2022/12/15 15:37:40;;;;;;;7.43;1.90;;;;;;;;;;6155506;23;20749;-91
2022/12/15 15:40:09;;;;;;;6.57;1.90;;;;;;;;;;6172154;23;20001;-91
2022/12/15 15:42:34;;;;;;;8.57;1.95;;;;;;;;;;6198080;23;20017;-89
2022/12/15 15:44:59;;;;;;;7.15;1.63;;;;;;;;;;6157449;23;20635;-90
2022/12/15 15:47:25;;;;;;;9.05;1.58;;;;;;;;;;6153588;23;20586;-90
2022/12/15 15:49:55;;;;;;;8.52;2.05;;;;;;;;;;6151532;23;20344;-90
2022/12/15 15:52:21;;;;;;;7.50;1.83;;;;;;;;;;6151109;23;20049;-90
2022/12/15 15:54:47;;;;;;;6.43;1.73;;;;;;;;;;6154712;23;20040;-94
2022/12/15 15:57:14;;;;;;;10.25;1.95;;;;;;;;;;6178507;23;20402;-91
2022/12/15 15:59:41;;;;;;;10.77;2.03;;;;;;;;;;6150557;23;20009;-90
2022/12/15 16:02:08;;;;;;;9.98;2.00;;;;;;;;;;6151050;23;20013;-91
2022/12/15 16:04:35;;;;;;;9.40;1.67;;;;;;;;;;6261851;22;20017;-91
2022/12/15 16:07:02;;;;;;;11.80;2.25;;;;;;;;;;6328545;22;19999;-90
2022/12/15 16:09:27;;;;;;;8.02;2.15;;;;;;;;;;6331312;22;20013;-90
2022/12/15 16:11:53;;;;;;;8.25;2.53;;;;;;;;;;6300208;22;20010;-90
2022/12/15 16:14:21;;;;;;;8.30;2.45;;;;;;;;;;6304273;22;20015;-91
2022/12/15 16:16:48;;;;;;;9.27;2.22;;;;;;;;;;6305867;22;20019;-90
2022/12/15 16:19:13;;;;;;;8.75;2.42;;;;;;;;;;6305079;22;20013;-90
2022/12/15 16:21:39;;;;;;;8.48;2.40;;;;;;;;;;6305322;22;20042;-90
2022/12/15 16:24:09;;;;;;;8.20;2.05;;;;;;;;;;6333436;22;20361;-91
2022/12/15 16:26:37;;;;;;;8.73;2.00;;;;;;;;;;6304868;22;20007;-91
2022/12/15 16:29:14;;;;;;;7.38;2.05;;;;;;;;;;6299940;22;20018;-92
2022/12/15 16:31:44;;;;;;;8.68;2.20;;;;;;;;;;6332639;22;19998;-90
2022/12/15 16:34:09;;;;;;;11.85;2.65;;;;;;;;;;6331966;22;20006;-90
2022/12/15 16:36:34;;;;;;;14.00;3.08;;;;;;;;;;6302247;22;20198;-89
2022/12/15 16:39:03;;;;;;;7.93;2.10;;;;;;;;;;6299323;22;20082;-89
2022/12/15 16:41:29;;;;;;;10.55;2.40;;;;;;;;;;6298963;22;20011;-91
2022/12/15 16:43:54;;;;;;;7.95;2.40;;;;;;;;;;6297121;22;20394;-90
2022/12/15 16:46:19;;;;;;;56.45;6.30;;;;;;;;;;6298883;22;20372;-90
2022/12/15 16:48:44;;;;;;;10.60;3.10;;;;;;;;;;6326013;22;20522;-90
2022/12/15 16:51:33;;;;;;;8.25;2.20;;;;;;;;;;6297460;22;20077;-90
2022/12/15 16:53:58;;;;;;;10.18;2.53;;;;;;;;;;6300084;22;20071;-90
2022/12/15 16:56:23;;;;;;;9.70;2.95;;;;;;;;;;6299952;22;20015;-91
2022/12/15 16:58:48;;;;;;;9.60;3.10;;;;;;;;;;6299930;22;20435;-90
2022/12/15 17:01:14;;;;;;;14.63;3.55;;;;;;;;;;6299299;22;20006;-91
2022/12/15 17:03:43;;;;;;;15.25;5.53;;;;;;;;;;6299171;22;20862;-91
2022/12/15 17:06:11;;;;;;;11.25;3.72;;;;;;;;;;6327392;22;20013;-91
2022/12/15 17:08:39;;;;;;;12.52;4.70;;;;;;;;;;6326916;22;20007;-91
2022/12/15 17:11:04;;;;;;;12.35;4.25;;;;;;;;;;6298908;22;20010;-91
2022/12/15 17:13:32;;;;;;;13.27;4.85;;;;;;;;;;6324747;22;20012;-89
2022/12/15 17:15:58;;;;;;;17.40;4.18;;;;;;;;;;6298072;22;20022;-91
2022/12/15 17:18:23;;;;;;;9.88;3.85;;;;;;;;;;6294273;22;20006;-90
2022/12/15 17:20:49;;;;;;;11.18;3.95;;;;;;;;;;6323136;22;20009;-90
2022/12/15 17:23:21;;;;;;;9.68;3.70;;;;;;;;;;6296636;22;20032;-90
2022/12/15 17:25:47;;;;;;;30.70;5.25;;;;;;;;;;6300893;22;20007;-89
2022/12/15 17:28:18;;;;;;;10.90;3.70;;;;;;;;;;6295593;22;20010;-90
2022/12/15 17:30:44;;;;;;;13.95;3.95;;;;;;;;;;6297809;22;20003;-92
2022/12/15 17:33:29;;;;;;;13.63;4.22;;;;;;;;;;6298061;22;20568;-90
2022/12/15 17:35:55;;;;;;;11.45;3.90;;;;;;;;;;6295473;22;20401;-90
2022/12/15 17:38:22;;;;;;;12.95;3.75;;;;;;;;;;6297898;22;20010;-90
2022/12/15 17:40:47;;;;;;;15.30;3.28;;;;;;;;;;6342229;22;20010;-90
2022/12/15 17:43:31;;;;;;;7.25;2.58;;;;;;;;;;6322319;22;19999;-89
2022/12/15 17:45:56;;;;;;;10.43;3.58;;;;;;;;;;6353008;22;20001;-90
2022/12/15 17:48:22;;;;;;;11.23;3.15;;;;;;;;;;6336625;22;20077;-91
2022/12/15 17:50:49;;;;;;;8.50;2.58;;;;;;;;;;6329221;22;20007;-90
2022/12/15 17:53:15;;;;;;;10.75;2.80;;;;;;;;;;6299213;22;20006;-90
2022/12/15 17:55:41;;;;;;;10.82;3.35;;;;;;;;;;6324723;22;20014;-91
2022/12/15 17:58:17;;;;;;;11.00;3.00;;;;;;;;;;6351751;22;20007;-90
2022/12/15 18:00:43;;;;;;;8.48;2.88;;;;;;;;;;6332938;22;20006;-90
2022/12/15 18:03:08;;;;;;;10.48;2.75;;;;;;;;;;6329158;22;20031;-90
2022/12/15 18:05:33;;;;;;;10.45;3.30;;;;;;;;;;6299810;22;20022;-90
2022/12/15 18:08:00;;;;;;;11.35;3.20;;;;;;;;;;6299760;22;20051;-90
2022/12/15 18:10:31;;;;;;;13.35;3.40;;;;;;;;;;6327789;22;20065;-89
2022/12/15 18:12:57;;;;;;;12.35;3.40;;;;;;;;;;6300452;22;20009;-88
2022/12/15 18:15:24;;;;;;;19.42;4.72;;;;;;;;;;6299486;22;20007;-90
2022/12/15 18:17:49;;;;;;;12.18;4.07;;;;;;;;;;6300320;22;20011;-90
2022/12/15 18:20:15;;;;;;;11.10;3.70;;;;;;;;;;6327083;22;20081;-90
2022/12/15 18:22:41;;;;;;;9.75;3.45;;;;;;;;;;6299205;22;20761;-89
2022/12/15 18:25:13;;;;;;;12.85;3.33;;;;;;;;;;6299198;22;20030;-91
2022/12/15 18:27:39;;;;;;;10.30;3.45;;;;;;;;;;6328027;22;20013;-91
2022/12/15 18:30:04;;;;;;;12.80;3.42;;;;;;;;;;6327563;22;20059;-91
2022/12/15 18:32:38;;;;;;;11.48;3.33;;;;;;;;;;6300711;22;20028;-91
2022/12/15 18:35:14;;;;;;;11.13;3.40;;;;;;;;;;6328032;22;20017;-91
2022/12/15 18:37:39;;;;;;;10.07;3.22;;;;;;;;;;6300057;22;20086;-88
2022/12/15 18:40:04;;;;;;;11.48;3.28;;;;;;;;;;6327654;22;20011;-91
2022/12/15 18:42:33;;;;;;;12.57;3.30;;;;;;;;;;6300389;22;19999;-90
2022/12/15 18:44:59;;;;;;;7.82;2.83;;;;;;;;;;6330481;22;20067;-90
2022/12/15 18:47:25;;;;;;;9.18;3.00;;;;;;;;;;6326789;22;20015;-90
2022/12/15 18:49:50;;;;;;;8.55;2.50;;;;;;;;;;6303205;22;20041;-91
2022/12/15 18:52:16;;;;;;;13.05;3.10;;;;;;;;;;6331322;22;20026;-91
2022/12/15 18:54:42;;;;;;;11.05;3.33;;;;;;;;;;6304632;22;20003;-94
2022/12/15 18:57:30;;;;;;;9.93;3.10;;;;;;;;;;6336945;22;20006;-92
2022/12/15 19:00:29;;;;;;;16.38;3.60;;;;;;;;;;6310231;22;20003;-92
2022/12/15 19:02:55;;;;;;;11.20;2.80;;;;;;;;;;6243841;22;20007;-91
2022/12/15 19:05:27;;;;;;;10.85;2.78;;;;;;;;;;6301585;22;19994;-90
2022/12/15 19:07:57;;;;;;;11.15;3.20;;;;;;;;;;6301912;22;20011;-92
2022/12/15 19:10:22;;;;;;;14.85;7.38;;;;;;;;;;6304025;22;20017;-89
2022/12/15 19:12:48;;;;;;;12.85;3.38;;;;;;;;;;6302565;22;20102;-90
2022/12/15 19:15:17;;;;;;;11.98;3.40;;;;;;;;;;6303418;22;20013;-91
2022/12/15 19:23:11;;;;;;;8.50;2.80;;;;;;;;;;6332187;22;20006;-91
2022/12/15 19:25:38;;;;;;;9.07;2.70;;;;;;;;;;6303650;22;20002;-91
2022/12/15 19:28:05;;;;;;;11.02;2.60;;;;;;;;;;6302004;22;20050;-90
2022/12/15 19:30:32;;;;;;;9.23;2.70;;;;;;;;;;6331288;22;19998;-90
2022/12/15 19:33:00;;;;;;;10.77;2.50;;;;;;;;;;6302192;22;20076;-91
2022/12/15 19:35:35;;;;;;;10.32;3.22;;;;;;;;;;6329912;22;20097;-91
2022/12/15 19:38:03;;;;;;;9.25;2.83;;;;;;;;;;6329771;22;20007;-91
2022/12/15 19:40:31;;;;;;;10.27;2.67;;;;;;;;;;6329134;22;20002;-90
2022/12/15 19:42:57;;;;;;;10.15;2.47;;;;;;;;;;6330896;22;20003;-91
2022/12/15 19:45:24;;;;;;;13.23;3.03;;;;;;;;;;6303439;22;20006;-92
2022/12/15 19:47:50;;;;;;;8.80;2.50;;;;;;;;;;6304430;22;20002;-91
2022/12/15 19:50:21;;;;;;;9.15;2.50;;;;;;;;;;6306103;22;20084;-91
2022/12/15 19:52:49;;;;;;;10.52;2.55;;;;;;;;;;6307438;22;20026;-91
2022/12/15 19:55:15;;;;;;;7.78;2.50;;;;;;;;;;6307974;22;20003;-91
2022/12/15 19:57:42;;;;;;;9.50;2.70;;;;;;;;;;6308671;22;20474;-92
2022/12/15 20:00:14;;;;;;;8.90;2.35;;;;;;;;;;6337697;22;20016;-91
2022/12/15 20:02:40;;;;;;;8.73;2.50;;;;;;;;;;6327290;22;20003;-92
2022/12/15 20:05:06;;;;;;;7.22;2.35;;;;;;;;;;6348980;22;19995;-92
2022/12/15 20:07:32;;;;;;;10.75;2.22;;;;;;;;;;6307016;22;20312;-91
2022/12/15 20:09:57;;;;;;;6.93;1.80;;;;;;;;;;6306672;22;20015;-91
2022/12/15 20:12:22;;;;;;;12.07;2.40;;;;;;;;;;6320562;22;20062;-90
2022/12/15 20:14:48;;;;;;;9.70;2.67;;;;;;;;;;6358724;22;19990;-91
2022/12/15 20:17:13;;;;;;;8.43;2.40;;;;;;;;;;6312165;22;20032;-91